Time;durP1;ratioP1;P1;durP2;ratioP2;P2;SDS_P1;SDS_P2;PMS_P1;PMS_P2;Temp;Humidity;BMP_temperature;BMP_pressure;BME280_temperature;BME280_humidity;BME280_pressure;Samples;Min_cycle;Max_cycle;Signal;HPM_P1;HPM_P2
2024/01/25 00:04:14;;;;;;;;;;;;;;;7.33;100.00;96643.91;10437728;28;3021;-66
2024/01/25 00:09:16;;;;;;;;;;;;;;;7.31;100.00;96628.06;10437799;28;3046;-65
2024/01/25 00:14:19;;;;;;;;;;;;;;;7.27;100.00;96640.28;10441573;28;2865;-68
2024/01/25 00:19:21;;;;;;;;;;;;;;;7.30;100.00;96644.34;10441565;28;2862;-71
2024/01/25 00:24:24;;;;;;;;;;;;;;;7.34;100.00;96645.53;10435249;28;2952;-69
2024/01/25 00:29:26;;;;;;;;;;;;;;;7.31;100.00;96654.00;10439120;28;2934;-66
2024/01/25 00:34:29;;;;;;;;;;;;;;;7.26;100.00;96653.91;10435881;28;3195;-66
2024/01/25 00:39:32;;;;;;;;;;;;;;;7.32;100.00;96653.78;10438227;28;3064;-74
2024/01/25 00:44:34;;;;;;;;;;;;;;;7.32;100.00;96650.31;10435077;28;2934;-70
2024/01/25 00:49:37;;;;;;;;;;;;;;;7.33;100.00;96643.91;10438657;28;2923;-66
2024/01/25 00:54:40;;;;;;;;;;;;;;;7.33;100.00;96635.88;10438825;28;3054;-65
2024/01/25 00:59:43;;;;;;;;;;;;;;;7.40;100.00;96636.56;10440433;28;3171;-66
2024/01/25 01:04:45;;;;;;;;;;;;;;;7.49;100.00;96653.06;10440719;28;2881;-65
2024/01/25 01:09:50;;;;;;;;;;;;;;;7.48;100.00;96654.94;10441050;28;3139;-69
2024/01/25 01:14:52;;;;;;;;;;;;;;;7.54;100.00;96669.25;10437255;28;2907;-65
2024/01/25 01:19:55;;;;;;;;;;;;;;;7.50;100.00;96684.94;10435193;28;2988;-68
2024/01/25 01:24:58;;;;;;;;;;;;;;;7.48;100.00;96689.72;10435309;28;2922;-69
2024/01/25 01:30:01;;;;;;;;;;;;;;;7.54;100.00;96683.44;10432859;28;2914;-66
2024/01/25 01:35:03;;;;;;;;;;;;;;;7.48;100.00;96678.22;10434238;28;2900;-66
2024/01/25 01:40:06;;;;;;;;;;;;;;;7.48;100.00;96683.56;10439586;28;3002;-69
2024/01/25 01:45:09;;;;;;;;;;;;;;;7.52;100.00;96674.84;10414352;28;3039;-66
2024/01/25 01:50:12;;;;;;;;;;;;;;;7.55;100.00;96674.38;10439238;28;3022;-66
2024/01/25 01:55:14;;;;;;;;;;;;;;;7.50;100.00;96671.56;10434758;28;3037;-67
2024/01/25 02:00:17;;;;;;;;;;;;;;;7.52;100.00;96668.69;10439798;28;2897;-65
2024/01/25 02:05:20;;;;;;;;;;;;;;;7.50;100.00;96671.56;10433561;28;2926;-70
2024/01/25 02:10:23;;;;;;;;;;;;;;;7.46;100.00;96662.41;10441316;28;3028;-65
2024/01/25 02:15:26;;;;;;;;;;;;;;;7.45;100.00;96663.44;10439681;28;2942;-65
2024/01/25 02:20:29;;;;;;;;;;;;;;;7.40;100.00;96652.63;10442968;28;2937;-66
2024/01/25 02:25:32;;;;;;;;;;;;;;;7.42;100.00;96665.75;10443445;28;2986;-65
2024/01/25 02:30:34;;;;;;;;;;;;;;;7.39;100.00;96648.31;10442105;28;2942;-65
2024/01/25 02:35:37;;;;;;;;;;;;;;;7.40;100.00;96657.97;10441791;28;2888;-65
2024/01/25 02:40:39;;;;;;;;;;;;;;;7.44;100.00;96644.94;10443071;28;2981;-66
2024/01/25 02:45:41;;;;;;;;;;;;;;;7.47;100.00;96639.13;10438703;28;3000;-67
2024/01/25 02:50:44;;;;;;;;;;;;;;;7.45;100.00;96647.41;10441833;28;2890;-67
2024/01/25 02:55:46;;;;;;;;;;;;;;;7.46;100.00;96653.56;10442685;28;3054;-66
2024/01/25 03:00:48;;;;;;;;;;;;;;;7.55;100.00;96647.59;10435783;28;3100;-68
2024/01/25 03:05:51;;;;;;;;;;;;;;;7.57;100.00;96645.53;10436959;28;3018;-65
2024/01/25 03:10:54;;;;;;;;;;;;;;;7.56;100.00;96649.22;10442100;28;2949;-66
2024/01/25 03:15:57;;;;;;;;;;;;;;;7.53;100.00;96644.38;10420580;28;3043;-65
2024/01/25 03:20:59;;;;;;;;;;;;;;;7.54;100.00;96635.28;10443065;28;2938;-67
2024/01/25 03:26:02;;;;;;;;;;;;;;;7.43;100.00;96601.31;10443388;28;2962;-66
2024/01/25 03:31:04;;;;;;;;;;;;;;;7.50;100.00;96623.41;10436628;28;3095;-65
2024/01/25 03:36:06;;;;;;;;;;;;;;;7.44;100.00;96616.31;10442010;28;3059;-66
2024/01/25 03:41:09;;;;;;;;;;;;;;;7.46;100.00;96618.78;10433192;28;3235;-67
2024/01/25 03:46:11;;;;;;;;;;;;;;;7.45;100.00;96609.94;10435108;28;2978;-65
2024/01/25 03:51:14;;;;;;;;;;;;;;;7.39;100.00;96632.28;10427242;28;3046;-65
2024/01/25 03:56:17;;;;;;;;;;;;;;;7.31;100.00;96627.25;10440814;28;3124;-68
2024/01/25 04:01:19;;;;;;;;;;;;;;;7.34;100.00;96626.78;10436845;28;2886;-67
2024/01/25 04:06:23;;;;;;;;;;;;;;;7.33;100.00;96641.22;10433677;28;3016;-65
2024/01/25 04:11:26;;;;;;;;;;;;;;;7.33;100.00;96638.53;10436380;28;3106;-65
2024/01/25 04:16:30;;;;;;;;;;;;;;;7.38;100.00;96633.31;10433013;28;3096;-65
2024/01/25 04:21:33;;;;;;;;;;;;;;;7.39;100.00;96637.63;10429952;28;3032;-67
2024/01/25 04:26:35;;;;;;;;;;;;;;;7.36;100.00;96654.13;10429595;28;2955;-66
2024/01/25 04:31:38;;;;;;;;;;;;;;;7.46;100.00;96667.75;10433688;28;2962;-65
2024/01/25 04:36:41;;;;;;;;;;;;;;;7.47;100.00;96665.88;10433365;28;3039;-66
2024/01/25 04:41:44;;;;;;;;;;;;;;;7.37;100.00;96666.44;10436891;28;3056;-68
2024/01/25 04:46:46;;;;;;;;;;;;;;;7.34;100.00;96677.63;10438488;28;2998;-66
2024/01/25 04:51:49;;;;;;;;;;;;;;;7.31;100.00;96678.06;10444665;28;3016;-64
2024/01/25 04:56:52;;;;;;;;;;;;;;;7.24;100.00;96688.06;10432705;28;2980;-65
2024/01/25 05:01:55;;;;;;;;;;;;;;;7.21;100.00;96693.88;10434771;28;3007;-66
2024/01/25 05:06:57;;;;;;;;;;;;;;;7.18;100.00;96688.97;10437924;28;2961;-66
2024/01/25 05:12:02;;;;;;;;;;;;;;;7.18;100.00;96699.66;10428745;28;2930;-66
2024/01/25 05:17:04;;;;;;;;;;;;;;;7.11;100.00;96710.47;10432895;28;3109;-64
2024/01/25 05:22:07;;;;;;;;;;;;;;;7.09;100.00;96717.91;10437455;28;2998;-64
2024/01/25 05:27:09;;;;;;;;;;;;;;;7.12;100.00;96724.66;10430992;28;2898;-65
2024/01/25 05:32:12;;;;;;;;;;;;;;;7.16;100.00;96720.47;10432206;28;2826;-66
2024/01/25 05:37:14;;;;;;;;;;;;;;;7.15;100.00;96724.19;10432801;28;3005;-64
2024/01/25 05:42:17;;;;;;;;;;;;;;;7.24;100.00;96728.16;10434180;28;2942;-65
2024/01/25 05:47:20;;;;;;;;;;;;;;;7.18;100.00;96721.06;10434941;28;3032;-66
2024/01/25 05:52:23;;;;;;;;;;;;;;;7.18;100.00;96739.78;10440627;28;3039;-66
2024/01/25 05:57:27;;;;;;;;;;;;;;;7.12;100.00;96752.19;10442316;28;3124;-65
2024/01/25 06:02:30;;;;;;;;;;;;;;;7.13;100.00;96745.03;10437316;28;2966;-63
2024/01/25 06:07:33;;;;;;;;;;;;;;;7.04;100.00;96745.31;10442425;28;2931;-65
2024/01/25 06:12:36;;;;;;;;;;;;;;;6.96;100.00;96764.34;10436921;28;3180;-64
2024/01/25 06:17:38;;;;;;;;;;;;;;;6.93;100.00;96772.81;10434406;28;2991;-65
2024/01/25 06:22:41;;;;;;;;;;;;;;;6.82;100.00;96789.63;10441502;28;2894;-65
2024/01/25 06:27:43;;;;;;;;;;;;;;;6.74;100.00;96805.94;10443947;28;2947;-64
2024/01/25 06:32:46;;;;;;;;;;;;;;;6.70;100.00;96815.47;10436568;28;2992;-64
2024/01/25 06:37:49;;;;;;;;;;;;;;;6.54;100.00;96824.06;10437547;28;3017;-64
2024/01/25 06:42:51;;;;;;;;;;;;;;;6.37;100.00;96816.66;10444621;28;3028;-67
2024/01/25 06:47:54;;;;;;;;;;;;;;;6.26;100.00;96828.06;10445956;28;3017;-68
2024/01/25 06:52:56;;;;;;;;;;;;;;;6.18;100.00;96847.03;10442842;28;3158;-67
2024/01/25 06:57:59;;;;;;;;;;;;;;;6.08;100.00;96865.38;10441367;28;2882;-65
2024/01/25 07:03:01;;;;;;;;;;;;;;;6.04;100.00;96859.66;10439114;28;2958;-65
2024/01/25 07:08:04;;;;;;;;;;;;;;;6.04;100.00;96869.53;10432451;28;3181;-66
2024/01/25 07:13:07;;;;;;;;;;;;;;;6.10;100.00;96865.97;10436797;28;3073;-68
2024/01/25 07:18:09;;;;;;;;;;;;;;;6.17;100.00;96869.41;10432012;28;3044;-67
2024/01/25 07:23:12;;;;;;;;;;;;;;;6.19;100.00;96873.50;10435938;28;2974;-66
2024/01/25 07:28:14;;;;;;;;;;;;;;;6.44;100.00;96876.16;10438902;28;3053;-67
2024/01/25 07:33:17;;;;;;;;;;;;;;;6.55;100.00;96881.78;10438948;28;2982;-65
2024/01/25 07:38:20;;;;;;;;;;;;;;;6.57;100.00;96890.44;10435759;28;3002;-67
2024/01/25 07:43:22;;;;;;;;;;;;;;;6.62;100.00;96903.94;10434977;28;2930;-68
2024/01/25 07:48:25;;;;;;;;;;;;;;;6.71;100.00;96914.09;10434047;28;3218;-73
2024/01/25 07:53:28;;;;;;;;;;;;;;;6.78;100.00;96914.03;10435610;28;3030;-69
2024/01/25 07:58:30;;;;;;;;;;;;;;;6.81;100.00;96907.41;10439404;28;2887;-67
2024/01/25 08:03:33;;;;;;;;;;;;;;;6.94;100.00;96913.47;10425407;28;2867;-66
2024/01/25 08:08:36;;;;;;;;;;;;;;;6.97;100.00;96913.00;10439383;28;2947;-69
2024/01/25 08:13:39;;;;;;;;;;;;;;;7.08;100.00;96903.44;10443682;28;2919;-66
2024/01/25 08:18:43;;;;;;;;;;;;;;;7.21;100.00;96907.81;10446193;28;2985;-69
2024/01/25 08:23:47;;;;;;;;;;;;;;;7.13;100.00;96889.41;10436049;28;2933;-70
2024/01/25 08:28:52;;;;;;;;;;;;;;;6.93;100.00;96890.44;10436167;28;3046;-69
2024/01/25 08:33:54;;;;;;;;;;;;;;;6.97;100.00;96886.28;10433095;28;3022;-65
2024/01/25 08:38:57;;;;;;;;;;;;;;;6.75;100.00;96893.13;10438227;28;2918;-66
2024/01/25 08:44:00;;;;;;;;;;;;;;;6.74;100.00;96903.00;10434073;28;2989;-67
2024/01/25 08:49:08;;;;;;;;;;;;;;;7.04;100.00;96919.09;10438449;28;3365;-67
2024/01/25 08:54:11;;;;;;;;;;;;;;;7.18;100.00;96919.75;10423683;28;3041;-67
2024/01/25 08:59:13;;;;;;;;;;;;;;;7.57;100.00;96922.97;10428130;28;2969;-64
2024/01/25 09:04:16;;;;;;;;;;;;;;;7.57;100.00;96923.81;10424270;28;3014;-65
2024/01/25 09:09:18;;;;;;;;;;;;;;;7.21;100.00;96918.50;10421041;28;2931;-67
2024/01/25 09:14:21;;;;;;;;;;;;;;;7.18;100.00;96930.44;10419415;28;3052;-66
2024/01/25 09:19:24;;;;;;;;;;;;;;;7.54;100.00;96939.50;10435891;28;3020;-65
2024/01/25 09:24:27;;;;;;;;;;;;;;;7.98;100.00;96948.97;10446733;28;2988;-67
2024/01/25 09:29:29;;;;;;;;;;;;;;;8.34;100.00;96944.53;10449294;28;2904;-71
2024/01/25 09:34:32;;;;;;;;;;;;;;;8.39;100.00;96944.66;10450973;28;2942;-70
2024/01/25 09:39:36;;;;;;;;;;;;;;;8.44;100.00;96939.44;10443768;28;2994;-70
2024/01/25 09:44:39;;;;;;;;;;;;;;;8.69;100.00;96947.25;10445376;28;2937;-70
2024/01/25 09:49:41;;;;;;;;;;;;;;;8.66;100.00;96947.75;10443324;28;2919;-66
2024/01/25 09:54:44;;;;;;;;;;;;;;;8.63;100.00;96940.16;10435273;28;2982;-68
2024/01/25 09:59:47;;;;;;;;;;;;;;;8.53;100.00;96945.28;10430047;28;3243;-66
2024/01/25 10:04:49;;;;;;;;;;;;;;;8.71;100.00;96960.41;10448542;28;2961;-66
2024/01/25 10:09:52;;;;;;;;;;;;;;;9.00;100.00;96972.91;10444630;28;2977;-66
2024/01/25 10:14:55;;;;;;;;;;;;;;;9.00;100.00;96964.84;10438505;28;2961;-67
2024/01/25 10:19:57;;;;;;;;;;;;;;;9.01;100.00;96950.41;10435162;28;3003;-67
2024/01/25 10:25:01;;;;;;;;;;;;;;;8.86;100.00;96950.06;10436604;28;2969;-66
2024/01/25 10:30:04;;;;;;;;;;;;;;;8.74;100.00;96941.22;10429656;28;3048;-66
2024/01/25 10:35:07;;;;;;;;;;;;;;;8.96;100.00;96934.19;10431025;28;3015;-65
2024/01/25 10:40:11;;;;;;;;;;;;;;;9.05;100.00;96921.25;10431113;28;3084;-66
2024/01/25 10:45:13;;;;;;;;;;;;;;;8.95;100.00;96924.50;10413848;28;3002;-66
2024/01/25 10:50:16;;;;;;;;;;;;;;;9.17;100.00;96917.50;10433407;28;3039;-66
2024/01/25 10:55:18;;;;;;;;;;;;;;;9.14;100.00;96920.63;10441789;28;2997;-67
2024/01/25 11:00:22;;;;;;;;;;;;;;;9.15;100.00;96910.72;10438666;28;3002;-67
2024/01/25 11:05:24;;;;;;;;;;;;;;;8.88;100.00;96891.66;10442674;28;3053;-67
2024/01/25 11:10:27;;;;;;;;;;;;;;;8.82;100.00;96882.69;10438563;28;2985;-66
2024/01/25 11:15:30;;;;;;;;;;;;;;;8.52;100.00;96876.63;10432809;28;2966;-66
2024/01/25 11:20:32;;;;;;;;;;;;;;;8.33;100.00;96876.75;10433620;28;2968;-65
2024/01/25 11:25:35;;;;;;;;;;;;;;;8.32;100.00;96879.63;10433698;28;2922;-66
2024/01/25 11:30:37;;;;;;;;;;;;;;;8.54;100.00;96872.69;10438791;28;3118;-66
2024/01/25 11:35:41;;;;;;;;;;;;;;;8.44;100.00;96864.41;10436193;28;3248;-66
2024/01/25 11:40:44;;;;;;;;;;;;;;;8.41;100.00;96845.31;10440965;28;3039;-69
2024/01/25 11:45:47;;;;;;;;;;;;;;;8.46;100.00;96856.13;10441838;28;2998;-65
2024/01/25 11:50:50;;;;;;;;;;;;;;;8.27;100.00;96839.31;10437262;28;2922;-65
2024/01/25 11:55:52;;;;;;;;;;;;;;;8.48;100.00;96829.94;10434964;28;3098;-65
2024/01/25 12:00:55;;;;;;;;;;;;;;;8.68;100.00;96829.56;10426596;28;3067;-66
2024/01/25 12:05:58;;;;;;;;;;;;;;;8.68;100.00;96825.00;10434391;28;2897;-64
2024/01/25 12:11:01;;;;;;;;;;;;;;;9.06;100.00;96832.50;10435803;28;2904;-65
2024/01/25 12:16:04;;;;;;;;;;;;;;;9.38;100.00;96810.56;10429022;28;2966;-66
2024/01/25 12:21:06;;;;;;;;;;;;;;;9.46;100.00;96805.63;10429709;28;2996;-71
2024/01/25 12:26:08;;;;;;;;;;;;;;;9.60;100.00;96808.81;10428531;28;2950;-69
2024/01/25 12:31:12;;;;;;;;;;;;;;;9.61;100.00;96812.34;10406645;28;3036;-66
2024/01/25 12:36:15;;;;;;;;;;;;;;;9.71;100.00;96807.94;10430783;28;3133;-67
2024/01/25 12:41:18;;;;;;;;;;;;;;;9.74;100.00;96804.78;10428903;28;2965;-66
2024/01/25 12:46:20;;;;;;;;;;;;;;;9.97;100.00;96797.63;10428543;28;2944;-67
2024/01/25 12:51:30;;;;;;;;;;;;;;;10.12;100.00;96800.56;10425991;28;2930;-66
2024/01/25 12:56:32;;;;;;;;;;;;;;;10.02;100.00;96797.69;10431417;28;2812;-68
2024/01/25 13:01:35;;;;;;;;;;;;;;;9.94;100.00;96795.44;10425271;28;2939;-67
2024/01/25 13:06:38;;;;;;;;;;;;;;;9.69;100.00;96783.22;10429993;28;2916;-67
2024/01/25 13:11:41;;;;;;;;;;;;;;;9.59;100.00;96790.25;10427494;28;2900;-67
2024/01/25 13:16:43;;;;;;;;;;;;;;;9.39;100.00;96780.00;10430744;28;2889;-67
2024/01/25 13:21:46;;;;;;;;;;;;;;;9.54;100.00;96782.94;10430996;28;2786;-68
2024/01/25 13:26:48;;;;;;;;;;;;;;;9.67;100.00;96776.44;10425148;28;2877;-67
2024/01/25 13:31:51;;;;;;;;;;;;;;;9.61;100.00;96772.88;10426432;28;3062;-67
2024/01/25 13:36:54;;;;;;;;;;;;;;;9.39;100.00;96774.63;10424179;28;3096;-68
2024/01/25 13:41:57;;;;;;;;;;;;;;;9.53;100.00;96777.81;10421132;28;2902;-68
2024/01/25 13:47:01;;;;;;;;;;;;;;;9.51;100.00;96756.59;10431355;28;2968;-71
2024/01/25 13:52:04;;;;;;;;;;;;;;;9.29;100.00;96752.97;10430550;28;3086;-72
2024/01/25 13:57:06;;;;;;;;;;;;;;;9.28;100.00;96752.16;10429131;28;3014;-76
2024/01/25 14:02:09;;;;;;;;;;;;;;;9.16;100.00;96746.88;10430723;28;2940;-73
2024/01/25 14:07:11;;;;;;;;;;;;;;;9.25;100.00;96736.56;10434428;28;3109;-68
2024/01/25 14:12:14;;;;;;;;;;;;;;;9.13;100.00;96733.13;10421625;28;2921;-67
2024/01/25 14:17:17;;;;;;;;;;;;;;;9.11;100.00;96736.03;10433884;28;2977;-71
2024/01/25 14:22:19;;;;;;;;;;;;;;;9.14;100.00;96724.00;10436402;28;3034;-70
2024/01/25 14:27:33;;;;;;;;;;;;;;;9.05;100.00;96726.28;10437557;28;2921;-67
2024/01/25 14:32:36;;;;;;;;;;;;;;;9.15;100.00;96725.63;10433506;28;2898;-67
2024/01/25 14:37:38;;;;;;;;;;;;;;;8.97;100.00;96723.16;10447125;28;2945;-70
2024/01/25 14:42:40;;;;;;;;;;;;;;;8.91;100.00;96724.94;10442574;28;2946;-66
2024/01/25 14:47:44;;;;;;;;;;;;;;;8.93;100.00;96723.63;10438773;28;3165;-67
2024/01/25 14:52:46;;;;;;;;;;;;;;;8.67;100.00;96721.53;10419774;28;3131;-67
2024/01/25 14:57:49;;;;;;;;;;;;;;;8.63;100.00;96723.84;10436364;28;2786;-67
2024/01/25 15:02:51;;;;;;;;;;;;;;;8.44;100.00;96714.34;10435546;28;3099;-66
2024/01/25 15:07:54;;;;;;;;;;;;;;;8.49;100.00;96710.97;10437489;28;2791;-66
2024/01/25 15:12:59;;;;;;;;;;;;;;;8.43;100.00;96712.72;10435822;28;3057;-67
2024/01/25 15:18:02;;;;;;;;;;;;;;;8.34;100.00;96714.13;10438745;28;2895;-67
2024/01/25 15:23:05;;;;;;;;;;;;;;;8.29;100.00;96714.03;10434838;28;3153;-67
2024/01/25 15:28:08;;;;;;;;;;;;;;;8.18;100.00;96704.94;10438858;28;2932;-68
2024/01/25 15:33:10;;;;;;;;;;;;;;;8.13;100.00;96711.00;10416458;28;2989;-68
2024/01/25 15:38:15;;;;;;;;;;;;;;;8.05;100.00;96706.00;10439056;28;3018;-66
2024/01/25 15:43:17;;;;;;;;;;;;;;;7.92;100.00;96706.25;10435138;28;2915;-67
2024/01/25 15:48:20;;;;;;;;;;;;;;;7.86;100.00;96707.19;10438324;28;2927;-65
2024/01/25 15:53:23;;;;;;;;;;;;;;;7.83;100.00;96710.34;10440139;28;3076;-66
2024/01/25 15:58:25;;;;;;;;;;;;;;;7.80;100.00;96708.13;10440158;28;3021;-67
2024/01/25 16:03:27;;;;;;;;;;;;;;;7.66;100.00;96701.38;10443242;28;2206;-67
2024/01/25 16:08:30;;;;;;;;;;;;;;;7.63;100.00;96699.97;10446695;28;2254;-67
2024/01/25 16:13:32;;;;;;;;;;;;;;;7.56;100.00;96692.03;10449002;28;1610;-67
2024/01/25 16:18:35;;;;;;;;;;;;;;;7.53;100.00;96697.88;10445750;28;2108;-69
2024/01/25 16:23:37;;;;;;;;;;;;;;;7.52;100.00;96695.44;10449407;28;1906;-70
2024/01/25 16:28:40;;;;;;;;;;;;;;;7.47;100.00;96692.63;10445348;28;2546;-68
2024/01/25 16:33:42;;;;;;;;;;;;;;;7.40;100.00;96698.09;10454559;28;1912;-68
2024/01/25 16:38:45;;;;;;;;;;;;;;;7.38;100.00;96718.06;10447878;28;1610;-67
2024/01/25 16:43:47;;;;;;;;;;;;;;;7.32;100.00;96701.13;10454537;28;1991;-67
2024/01/25 16:48:50;;;;;;;;;;;;;;;7.29;100.00;96707.72;10451137;28;1729;-68
2024/01/25 16:53:52;;;;;;;;;;;;;;;7.27;100.00;96709.00;10450403;28;2257;-68
2024/01/25 16:58:56;;;;;;;;;;;;;;;7.24;100.00;96725.50;10449819;28;1454;-70
2024/01/25 17:03:59;;;;;;;;;;;;;;;7.23;100.00;96724.69;10444680;28;1922;-73
2024/01/25 17:09:01;;;;;;;;;;;;;;;7.25;100.00;96721.78;10443021;28;1589;-67
2024/01/25 17:14:04;;;;;;;;;;;;;;;7.27;100.00;96711.69;10447580;28;1567;-69
2024/01/25 17:19:07;;;;;;;;;;;;;;;7.29;100.00;96725.63;10449584;28;1486;-68
2024/01/25 17:24:09;;;;;;;;;;;;;;;7.31;100.00;96731.56;10447738;28;2582;-68
2024/01/25 17:29:12;;;;;;;;;;;;;;;7.19;100.00;96725.34;10449783;28;1490;-68
2024/01/25 17:34:14;;;;;;;;;;;;;;;7.13;100.00;96720.94;10446072;28;1489;-67
2024/01/25 17:39:18;;;;;;;;;;;;;;;7.20;100.00;96729.69;10443808;28;3040;-66
2024/01/25 17:44:21;;;;;;;;;;;;;;;7.21;100.00;96732.13;10450366;28;2932;-67
2024/01/25 17:49:23;;;;;;;;;;;;;;;7.26;100.00;96728.78;10453283;28;2801;-67
2024/01/25 17:54:26;;;;;;;;;;;;;;;7.17;100.00;96728.25;10453029;28;2202;-67
2024/01/25 17:59:29;;;;;;;;;;;;;;;7.22;100.00;96728.41;10449886;28;1592;-67
2024/01/25 18:04:31;;;;;;;;;;;;;;;7.18;100.00;96726.41;10459052;28;1914;-67
2024/01/25 18:09:34;;;;;;;;;;;;;;;7.22;100.00;96744.44;10451761;28;2191;-67
2024/01/25 18:14:36;;;;;;;;;;;;;;;7.21;100.00;96744.69;10451584;28;1707;-68
2024/01/25 18:19:39;;;;;;;;;;;;;;;7.20;100.00;96745.72;10454384;28;2540;-68
2024/01/25 18:24:42;;;;;;;;;;;;;;;7.20;100.00;96743.88;10449380;28;1977;-70
2024/01/25 18:29:44;;;;;;;;;;;;;;;7.20;100.00;96751.09;10457361;28;1629;-76
2024/01/25 18:34:49;;;;;;;;;;;;;;;7.19;100.00;96746.75;10451972;28;2858;-67
2024/01/25 18:39:52;;;;;;;;;;;;;;;7.17;100.00;96741.63;10455815;28;3089;-69
2024/01/25 18:44:54;;;;;;;;;;;;;;;7.10;100.00;96756.97;10454170;28;2294;-70
2024/01/25 18:49:56;;;;;;;;;;;;;;;7.17;100.00;96746.97;10451431;28;1820;-70
2024/01/25 18:54:59;;;;;;;;;;;;;;;7.14;100.00;96733.28;10448905;28;2219;-67
2024/01/25 19:00:04;;;;;;;;;;;;;;;7.16;100.00;96731.19;10450012;28;1674;-69
2024/01/25 19:05:07;;;;;;;;;;;;;;;7.14;100.00;96719.91;10455333;28;2492;-65
2024/01/25 19:10:10;;;;;;;;;;;;;;;7.16;100.00;96717.81;10449894;28;2810;-64
2024/01/25 19:15:13;;;;;;;;;;;;;;;7.12;100.00;96719.28;10445929;28;2767;-65
2024/01/25 19:20:16;;;;;;;;;;;;;;;7.16;100.00;96725.81;10445462;28;2195;-65
2024/01/25 19:25:20;;;;;;;;;;;;;;;7.18;100.00;96731.75;10454411;28;1926;-66
2024/01/25 19:30:23;;;;;;;;;;;;;;;7.19;100.00;96720.00;10458174;28;2234;-66
2024/01/25 19:35:27;;;;;;;;;;;;;;;7.21;100.00;96709.91;10451192;28;1482;-66
2024/01/25 19:40:30;;;;;;;;;;;;;;;7.23;100.00;96713.97;10453829;28;1498;-65
2024/01/25 19:45:32;;;;;;;;;;;;;;;7.19;100.00;96695.94;10452817;28;2469;-66
2024/01/25 19:50:37;;;;;;;;;;;;;;;7.24;100.00;96704.09;10454996;28;1518;-64
2024/01/25 19:55:39;;;;;;;;;;;;;;;7.21;100.00;96710.72;10454947;28;1551;-66
2024/01/25 20:00:42;;;;;;;;;;;;;;;7.26;100.00;96712.72;10453802;28;1606;-65
2024/01/25 20:05:45;;;;;;;;;;;;;;;7.28;100.00;96727.50;10448549;28;1957;-73
2024/01/25 20:10:48;;;;;;;;;;;;;;;7.33;100.00;96718.78;10446581;28;2207;-70
2024/01/25 20:15:50;;;;;;;;;;;;;;;7.33;100.00;96718.78;10454532;28;1733;-67
2024/01/25 20:20:53;;;;;;;;;;;;;;;7.38;100.00;96718.06;10443160;28;1515;-71
2024/01/25 20:25:57;;;;;;;;;;;;;;;7.42;100.00;96728.09;10445449;28;2545;-66
2024/01/25 20:30:59;;;;;;;;;;;;;;;7.50;100.00;96729.63;10446864;28;1636;-71
2024/01/25 20:36:01;;;;;;;;;;;;;;;7.55;100.00;96733.22;10442520;28;1431;-63
2024/01/25 20:41:04;;;;;;;;;;;;;;;7.53;100.00;96731.84;10438614;28;3347;-65
2024/01/25 20:46:06;;;;;;;;;;;;;;;7.51;100.00;96739.28;10444567;28;1993;-65
2024/01/25 20:51:09;;;;;;;;;;;;;;;7.53;100.00;96737.19;10451309;28;1470;-65
2024/01/25 20:56:12;;;;;;;;;;;;;;;7.46;100.00;96748.00;10444960;28;1528;-64
2024/01/25 21:01:14;;;;;;;;;;;;;;;7.43;100.00;96751.13;10445579;28;1600;-67
2024/01/25 21:06:17;;;;;;;;;;;;;;;7.36;100.00;96744.25;10444420;28;1926;-65
2024/01/25 21:11:20;;;;;;;;;;;;;;;7.32;100.00;96736.69;10449087;28;1403;-64
2024/01/25 21:16:22;;;;;;;;;;;;;;;7.24;100.00;96741.53;10447615;28;2364;-64
2024/01/25 21:21:26;;;;;;;;;;;;;;;7.23;100.00;96735.38;10447602;28;1546;-64
2024/01/25 21:26:29;;;;;;;;;;;;;;;7.13;100.00;96727.13;10438631;28;2995;-66
2024/01/25 21:31:32;;;;;;;;;;;;;;;7.19;100.00;96738.72;10432444;28;2954;-67
2024/01/25 21:36:34;;;;;;;;;;;;;;;7.18;100.00;96737.09;10441365;28;2998;-64
2024/01/25 21:41:36;;;;;;;;;;;;;;;7.19;100.00;96738.72;10433736;28;2971;-65
2024/01/25 21:46:40;;;;;;;;;;;;;;;7.27;100.00;96735.75;10435713;28;3073;-66
2024/01/25 21:51:43;;;;;;;;;;;;;;;7.32;100.00;96741.22;10434550;28;2924;-70
2024/01/25 21:56:48;;;;;;;;;;;;;;;7.28;100.00;96732.03;10437688;28;2977;-65
2024/01/25 22:01:51;;;;;;;;;;;;;;;7.32;100.00;96735.88;10431572;28;3008;-67
2024/01/25 22:06:55;;;;;;;;;;;;;;;7.41;100.00;96731.81;10432100;28;2942;-66
2024/01/25 22:11:58;;;;;;;;;;;;;;;7.51;100.00;96731.25;10433878;28;2898;-66
2024/01/25 22:17:00;;;;;;;;;;;;;;;7.54;100.00;96736.16;10433664;28;2930;-67
2024/01/25 22:22:03;;;;;;;;;;;;;;;7.51;100.00;96737.44;10440245;28;2820;-67
2024/01/25 22:27:08;;;;;;;;;;;;;;;7.47;100.00;96740.78;10439600;28;2778;-67
2024/01/25 22:32:11;;;;;;;;;;;;;;;7.46;100.00;96729.28;10439637;28;2826;-65
2024/01/25 22:37:14;;;;;;;;;;;;;;;7.50;100.00;96719.72;10445201;28;3006;-66
2024/01/25 22:42:16;;;;;;;;;;;;;;;7.59;100.00;96721.03;10448437;28;2877;-66
2024/01/25 22:47:18;;;;;;;;;;;;;;;7.60;100.00;96713.81;10434112;28;3147;-67
2024/01/25 22:52:21;;;;;;;;;;;;;;;7.56;100.00;96721.47;10443218;28;3163;-69
2024/01/25 22:57:24;;;;;;;;;;;;;;;7.63;100.00;96707.97;10444711;28;2817;-66
2024/01/25 23:02:26;;;;;;;;;;;;;;;7.44;100.00;96709.94;10437778;28;3242;-68
2024/01/25 23:07:28;;;;;;;;;;;;;;;7.44;100.00;96707.25;10447893;28;2902;-67
2024/01/25 23:12:31;;;;;;;;;;;;;;;7.57;100.00;96701.72;10451236;28;2908;-66
2024/01/25 23:17:34;;;;;;;;;;;;;;;7.63;100.00;96707.16;10444927;28;2891;-66
2024/01/25 23:22:36;;;;;;;;;;;;;;;7.66;100.00;96709.41;10438172;28;2946;-66
2024/01/25 23:27:39;;;;;;;;;;;;;;;7.72;100.00;96705.78;10438115;28;2912;-66
2024/01/25 23:32:41;;;;;;;;;;;;;;;7.81;100.00;96710.56;10437134;28;3026;-66
2024/01/25 23:37:44;;;;;;;;;;;;;;;7.73;100.00;96702.88;10444022;28;2986;-67
2024/01/25 23:42:46;;;;;;;;;;;;;;;7.78;100.00;96699.50;10435373;28;3132;-69
2024/01/25 23:47:50;;;;;;;;;;;;;;;7.79;100.00;96696.59;10435701;28;3160;-65
2024/01/25 23:52:53;;;;;;;;;;;;;;;7.69;100.00;96695.53;10440009;28;2942;-65
2024/01/25 23:57:56;;;;;;;;;;;;;;;7.65;100.00;96689.84;10443044;28;3105;-65
